createdAt,value
2022-11-20T00:01:32.967Z,70.67
2022-11-20T00:04:00.516Z,70.92
2022-11-20T00:06:29.171Z,70.50
2022-11-20T00:08:58.563Z,70.57
2022-11-20T00:11:27.728Z,70.75
2022-11-20T00:13:58.332Z,70.59
2022-11-20T00:16:28.801Z,70.66
2022-11-20T00:18:55.966Z,70.66
2022-11-20T00:21:25.304Z,70.38
2022-11-20T00:23:55.390Z,70.65
2022-11-20T00:26:24.480Z,70.20
2022-11-20T00:29:01.168Z,70.25
2022-11-20T00:31:29.221Z,70.47
2022-11-20T00:33:57.299Z,70.16
2022-11-20T00:36:27.376Z,70.56
2022-11-20T00:38:57.760Z,70.47
2022-11-20T00:41:26.563Z,70.51
2022-11-20T00:43:57.467Z,70.35
2022-11-20T00:46:28.220Z,70.41
2022-11-20T00:48:55.802Z,70.28
2022-11-20T00:51:26.325Z,70.44
2022-11-20T00:53:55.831Z,70.39
2022-11-20T00:56:23.139Z,70.68
2022-11-20T00:58:52.634Z,70.66
2022-11-20T01:01:25.827Z,70.69
2022-11-20T01:03:55.054Z,70.33
2022-11-20T01:06:28.347Z,70.72
2022-11-20T01:09:01.113Z,70.88
2022-11-20T01:11:31.465Z,71.32
2022-11-20T01:14:02.078Z,70.89
2022-11-20T01:16:37.811Z,70.98
2022-11-20T01:19:08.484Z,70.54
2022-11-20T01:21:38.300Z,70.82
2022-11-20T01:24:11.389Z,70.93
2022-11-20T01:26:41.088Z,70.78
2022-11-20T01:29:14.009Z,70.60
2022-11-20T01:31:41.230Z,70.31
2022-11-20T01:34:12.370Z,69.94
2022-11-20T01:36:40.866Z,70.28
2022-11-20T01:39:13.448Z,71.05
2022-11-20T01:42:01.277Z,71.24
2022-11-20T01:44:59.402Z,71.89
2022-11-20T01:47:33.185Z,71.38
2022-11-20T01:50:10.681Z,71.62
2022-11-20T01:52:42.414Z,71.22
2022-11-20T01:55:23.426Z,71.48
2022-11-20T01:57:51.322Z,70.83
2022-11-20T02:00:20.931Z,70.64
2022-11-20T02:03:11.148Z,71.00
2022-11-20T02:05:45.371Z,71.20
2022-11-20T02:08:14.246Z,71.05
2022-11-20T02:10:41.332Z,71.05
2022-11-20T02:13:27.945Z,70.94
2022-11-20T02:15:55.494Z,71.50
2022-11-20T02:18:24.276Z,71.56
2022-11-20T02:21:03.224Z,71.92
2022-11-20T02:23:45.111Z,71.67
2022-11-20T02:26:15.579Z,71.11
2022-11-20T02:28:43.320Z,71.07
2022-11-20T02:31:10.696Z,70.93
2022-11-20T02:33:38.170Z,71.06
2022-11-20T02:36:06.053Z,70.50
2022-11-20T02:38:33.290Z,71.05
2022-11-20T02:41:00.717Z,71.29
2022-11-20T02:43:27.954Z,71.49
2022-11-20T02:45:55.195Z,71.72
2022-11-20T02:48:25.008Z,71.54
2022-11-20T02:50:52.440Z,71.80
2022-11-20T02:53:19.557Z,71.78
2022-11-20T02:55:46.743Z,72.20
2022-11-20T02:58:13.806Z,72.42
2022-11-20T03:00:41.247Z,72.83
2022-11-20T03:03:08.714Z,72.80
2022-11-20T03:05:35.982Z,72.55
2022-11-20T03:08:03.136Z,73.10
2022-11-20T03:10:30.330Z,74.06
2022-11-20T03:12:57.727Z,74.33
2022-11-20T03:15:25.197Z,73.79
2022-11-20T03:17:56.726Z,73.29
2022-11-20T03:20:24.507Z,73.21
2022-11-20T03:22:51.717Z,73.25
2022-11-20T03:25:18.891Z,73.20
2022-11-20T03:27:46.129Z,72.85
2022-11-20T03:30:13.767Z,73.76
2022-11-20T03:32:40.924Z,74.49
2022-11-20T03:35:08.482Z,74.89
2022-11-20T03:37:38.522Z,75.18
2022-11-20T03:40:06.838Z,75.68
2022-11-20T03:42:46.143Z,75.37
2022-11-20T03:45:18.638Z,75.44
2022-11-20T03:47:46.249Z,75.88
2022-11-20T03:50:14.859Z,76.25
2022-11-20T03:52:42.245Z,75.64
2022-11-20T03:55:09.651Z,75.80
2022-11-20T03:57:36.841Z,74.98
2022-11-20T04:00:05.871Z,74.46
2022-11-20T04:02:33.250Z,74.73
2022-11-20T04:05:00.338Z,74.73
2022-11-20T04:07:27.576Z,74.35
2022-11-20T04:09:54.768Z,74.27
2022-11-20T04:12:21.879Z,74.28
2022-11-20T04:14:49.080Z,74.37
2022-11-20T04:17:16.409Z,74.58
2022-11-20T04:19:43.693Z,74.91
2022-11-20T04:22:12.739Z,74.56
2022-11-20T04:24:39.989Z,74.38
2022-11-20T04:27:07.097Z,74.56
2022-11-20T04:29:34.215Z,74.34
2022-11-20T04:32:01.794Z,74.16
2022-11-20T04:34:29.128Z,74.36
2022-11-20T04:36:56.357Z,73.80
2022-11-20T04:39:24.522Z,73.85
2022-11-20T04:42:14.545Z,74.63
2022-11-20T04:44:41.820Z,75.47
2022-11-20T04:47:09.674Z,75.21
2022-11-20T04:49:37.643Z,75.38
2022-11-20T04:52:04.878Z,76.02
2022-11-20T04:54:32.359Z,76.35
2022-11-20T04:56:59.559Z,76.50
2022-11-20T04:59:27.011Z,77.00
2022-11-20T05:01:54.354Z,77.25
2022-11-20T05:04:21.589Z,77.49
2022-11-20T05:06:49.277Z,77.16
2022-11-20T05:09:16.599Z,77.21
2022-11-20T05:11:46.209Z,76.80
2022-11-20T05:14:15.282Z,76.89
2022-11-20T05:16:43.000Z,76.98
2022-11-20T05:19:10.376Z,76.61
2022-11-20T05:21:37.404Z,76.81
2022-11-20T05:24:07.002Z,76.78
2022-11-20T05:26:34.263Z,76.82
2022-11-20T05:29:01.611Z,76.96
2022-11-20T05:31:28.834Z,77.12
2022-11-20T05:33:58.015Z,77.28
2022-11-20T05:36:25.566Z,76.78
2022-11-20T05:38:56.725Z,77.06
2022-11-20T05:41:26.125Z,76.32
2022-11-20T05:43:53.355Z,75.35
2022-11-20T05:46:28.762Z,75.32
2022-11-20T05:48:57.822Z,75.10
2022-11-20T05:51:26.491Z,74.96
2022-11-20T05:53:53.676Z,74.98
2022-11-20T05:56:23.621Z,75.08
2022-11-20T05:58:51.422Z,74.85
2022-11-20T06:01:21.734Z,74.40
2022-11-20T06:03:50.553Z,74.14
2022-11-20T06:06:18.654Z,74.72
2022-11-20T06:08:46.335Z,74.38
2022-11-20T06:11:15.474Z,74.95
2022-11-20T06:13:43.559Z,74.64
2022-11-20T06:16:12.281Z,74.64
2022-11-20T06:18:40.415Z,74.68
2022-11-20T06:21:13.886Z,74.41
2022-11-20T06:23:41.697Z,74.83
2022-11-20T06:26:30.053Z,74.70
2022-11-20T06:28:57.472Z,74.82
2022-11-20T06:31:26.168Z,74.89
2022-11-20T06:33:53.836Z,75.01
2022-11-20T06:36:23.094Z,75.25
2022-11-20T06:38:51.171Z,74.98
2022-11-20T06:41:21.228Z,75.00
2022-11-20T06:43:49.226Z,74.27
2022-11-20T06:46:21.403Z,74.81
2022-11-20T06:48:49.891Z,74.85
2022-11-20T06:51:17.256Z,75.02
2022-11-20T06:53:44.475Z,74.96
2022-11-20T06:56:11.940Z,74.78
2022-11-20T06:58:39.383Z,74.09
2022-11-20T07:01:10.289Z,74.69
2022-11-20T07:03:37.857Z,74.38
2022-11-20T07:06:06.298Z,75.37
2022-11-20T07:08:34.417Z,75.26
2022-11-20T07:11:03.557Z,75.30
2022-11-20T07:13:32.760Z,75.40
2022-11-20T07:16:05.649Z,75.18
2022-11-20T07:18:33.022Z,74.80
2022-11-20T07:21:09.247Z,75.10
2022-11-20T07:23:37.700Z,74.57
2022-11-20T07:26:10.369Z,74.29
2022-11-20T07:28:38.271Z,74.42
2022-11-20T07:31:07.851Z,74.19
2022-11-20T07:33:35.366Z,74.72
2022-11-20T07:36:02.998Z,74.45
2022-11-20T07:38:31.247Z,74.45
2022-11-20T07:40:59.142Z,74.66
2022-11-20T07:43:26.709Z,75.01
2022-11-20T07:45:57.637Z,75.38
2022-11-20T07:48:25.824Z,75.81
2022-11-20T07:50:59.245Z,76.05
2022-11-20T07:53:26.965Z,76.54
2022-11-20T07:55:54.222Z,76.39
2022-11-20T07:58:22.606Z,76.56
2022-11-20T08:00:50.046Z,76.45
2022-11-20T08:03:24.120Z,76.56
2022-11-20T08:05:53.076Z,76.06
2022-11-20T08:08:20.390Z,76.27
2022-11-20T08:10:48.005Z,76.82
2022-11-20T08:13:33.481Z,76.93
2022-11-20T08:16:00.562Z,76.72
2022-11-20T08:18:32.443Z,76.81
2022-11-20T08:21:05.968Z,77.23
2022-11-20T08:23:33.453Z,77.47
2022-11-20T08:26:00.813Z,77.36
2022-11-20T08:28:28.026Z,77.33
2022-11-20T08:31:02.872Z,77.30
2022-11-20T08:33:31.089Z,76.95
2022-11-20T08:36:02.710Z,77.18
2022-11-20T08:38:30.806Z,77.32
2022-11-20T08:41:21.666Z,78.00
2022-11-20T08:43:49.660Z,77.88
2022-11-20T08:46:16.828Z,77.67
2022-11-20T08:48:44.942Z,78.42
2022-11-20T08:51:13.168Z,78.64
2022-11-20T08:53:40.879Z,78.55
2022-11-20T08:56:08.664Z,78.90
2022-11-20T08:58:55.028Z,78.45
2022-11-20T09:01:24.819Z,78.40
2022-11-20T09:03:57.080Z,79.03
2022-11-20T09:06:24.570Z,78.02
2022-11-20T09:08:55.592Z,78.37
2022-11-20T09:11:23.000Z,78.48
2022-11-20T09:13:50.752Z,78.40
2022-11-20T09:16:17.977Z,78.96
2022-11-20T09:18:45.637Z,78.54
2022-11-20T09:21:15.293Z,78.95
2022-11-20T09:23:42.969Z,78.77
2022-11-20T09:26:14.889Z,78.96
2022-11-20T09:28:43.528Z,79.06
2022-11-20T09:31:21.387Z,79.40
2022-11-20T09:33:48.746Z,79.09
2022-11-20T09:36:17.152Z,79.41
2022-11-20T09:38:44.232Z,79.64
2022-11-20T09:41:36.612Z,79.43
2022-11-20T09:44:20.166Z,79.46
2022-11-20T09:46:59.530Z,79.73
2022-11-20T09:49:45.404Z,78.99
2022-11-20T09:52:35.972Z,79.29
2022-11-20T09:55:05.016Z,79.21
2022-11-20T09:57:42.621Z,79.20
2022-11-20T10:00:15.300Z,78.92
2022-11-20T10:02:46.167Z,79.11
2022-11-20T10:05:20.816Z,78.31
2022-11-20T10:08:10.389Z,78.37
2022-11-20T10:10:49.499Z,76.96
2022-11-20T10:14:02.166Z,77.29
2022-11-20T10:16:48.143Z,76.89
2022-11-20T10:19:28.912Z,76.62
2022-11-20T10:22:14.716Z,75.99
2022-11-20T10:24:51.953Z,75.60
2022-11-20T10:27:19.252Z,75.54
2022-11-20T10:29:55.062Z,74.39
2022-11-20T10:32:31.428Z,74.34
2022-11-20T10:35:05.319Z,73.87
2022-11-20T10:37:38.944Z,73.95
2022-11-20T10:40:21.235Z,73.64
2022-11-20T10:42:57.395Z,73.59
2022-11-20T10:45:30.580Z,72.94
2022-11-20T10:48:16.861Z,73.05
2022-11-20T10:50:56.290Z,72.72
2022-11-20T10:53:42.043Z,72.70
2022-11-20T10:56:24.540Z,72.59
2022-11-20T10:59:32.015Z,71.84
2022-11-20T11:02:02.643Z,72.17
2022-11-20T11:04:45.858Z,71.69
2022-11-20T11:07:39.405Z,71.70
2022-11-20T11:10:42.500Z,71.17
2022-11-20T11:13:21.670Z,71.25
2022-11-20T11:15:48.962Z,71.13
2022-11-20T11:18:34.687Z,70.67
2022-11-20T11:21:05.363Z,71.33
2022-11-20T11:23:34.436Z,70.83
2022-11-20T11:26:04.375Z,70.53
2022-11-20T11:28:32.010Z,70.86
2022-11-20T11:30:59.199Z,71.49
2022-11-20T11:33:32.242Z,71.14
2022-11-20T11:36:21.793Z,70.90
2022-11-20T11:38:53.506Z,70.48
2022-11-20T11:41:25.289Z,71.00
2022-11-20T11:44:17.064Z,71.19
2022-11-20T11:46:58.232Z,70.49
2022-11-20T11:49:25.958Z,70.66
2022-11-20T11:51:53.216Z,70.98
2022-11-20T11:54:31.804Z,70.74
2022-11-20T11:57:04.844Z,70.39
2022-11-20T12:00:09.479Z,70.76
2022-11-20T12:02:45.930Z,70.52
2022-11-20T12:05:21.650Z,70.46
2022-11-20T12:08:24.938Z,71.34
2022-11-20T12:10:55.263Z,71.29
2022-11-20T12:13:31.422Z,71.10
2022-11-20T12:15:59.816Z,71.14
2022-11-20T12:18:28.222Z,71.00
2022-11-20T12:21:20.762Z,70.32
2022-11-20T12:24:03.941Z,70.53
2022-11-20T12:27:02.538Z,70.81
2022-11-20T12:29:38.172Z,70.73
2022-11-20T12:32:31.256Z,70.70
2022-11-20T12:35:37.579Z,70.21
2022-11-20T12:38:32.595Z,70.03
2022-11-20T12:41:06.360Z,69.84
2022-11-20T12:44:04.218Z,70.28
2022-11-20T12:46:53.251Z,70.85
2022-11-20T12:49:40.342Z,70.77
2022-11-20T12:52:16.820Z,70.22
2022-11-20T12:54:51.532Z,70.29
2022-11-20T12:58:07.292Z,70.67
2022-11-20T13:00:36.391Z,70.29
2022-11-20T13:03:20.356Z,70.54
2022-11-20T13:06:09.034Z,69.97
2022-11-20T13:08:40.123Z,69.61
2022-11-20T13:11:14.497Z,69.66
2022-11-20T13:14:05.011Z,69.60
2022-11-20T13:16:48.459Z,69.60
2022-11-20T13:19:20.974Z,70.27
2022-11-20T13:21:52.266Z,71.04
2022-11-20T13:24:31.537Z,71.54
2022-11-20T13:27:07.255Z,72.06
2022-11-20T13:29:41.388Z,72.24
2022-11-20T13:32:16.178Z,72.28
2022-11-20T13:34:53.980Z,72.21
2022-11-20T13:37:36.103Z,72.72
2022-11-20T13:40:07.449Z,72.50
2022-11-20T13:42:40.970Z,71.97
2022-11-20T13:45:30.087Z,72.05
2022-11-20T13:47:59.551Z,71.65
2022-11-20T13:50:37.336Z,72.09
2022-11-20T13:53:33.786Z,72.46
2022-11-20T13:56:45.054Z,72.70
2022-11-20T13:59:38.303Z,72.38
2022-11-20T14:02:15.692Z,72.10
2022-11-20T14:04:56.070Z,72.04
2022-11-20T14:07:28.552Z,71.42
2022-11-20T14:09:57.942Z,71.32
2022-11-20T14:12:30.854Z,71.53
2022-11-20T14:14:58.929Z,71.43
2022-11-20T14:17:32.255Z,72.41
2022-11-20T14:20:03.998Z,72.38
2022-11-20T14:22:31.483Z,72.41
2022-11-20T14:25:16.668Z,72.36
2022-11-20T14:27:53.997Z,72.23
2022-11-20T14:30:24.561Z,71.31
2022-11-20T14:32:55.577Z,71.12
2022-11-20T14:35:31.489Z,71.17
2022-11-20T14:37:59.098Z,70.73
2022-11-20T14:40:33.332Z,70.71
2022-11-20T14:43:00.895Z,70.73
2022-11-20T14:45:29.187Z,70.20
2022-11-20T14:47:59.130Z,70.07
2022-11-20T14:50:30.638Z,70.04
2022-11-20T14:53:01.090Z,70.43
2022-11-20T14:55:39.188Z,70.21
2022-11-20T14:58:21.501Z,70.24
2022-11-20T15:01:00.640Z,70.40
2022-11-20T15:03:38.084Z,70.23
2022-11-20T15:06:08.266Z,69.76
2022-11-20T15:08:36.338Z,70.07
2022-11-20T15:11:05.082Z,69.96
2022-11-20T15:13:40.242Z,69.95
2022-11-20T15:16:20.293Z,69.91
2022-11-20T15:18:48.527Z,69.93
2022-11-20T15:21:17.870Z,70.23
2022-11-20T15:23:47.051Z,70.46
2022-11-20T15:26:20.282Z,70.33
2022-11-20T15:28:49.157Z,70.97
2022-11-20T15:31:19.804Z,70.95
2022-11-20T15:33:47.502Z,71.16
2022-11-20T15:36:15.338Z,71.09
2022-11-20T15:38:42.872Z,71.30
2022-11-20T15:41:11.452Z,71.41
2022-11-20T15:43:40.595Z,71.60
2022-11-20T15:46:12.490Z,71.72
2022-11-20T15:48:55.293Z,71.35
2022-11-20T15:51:37.519Z,71.31
2022-11-20T15:54:13.679Z,71.57
2022-11-20T15:56:40.932Z,71.76
2022-11-20T15:59:08.419Z,72.08
2022-11-20T16:01:38.856Z,71.78
2022-11-20T16:04:10.910Z,71.57
2022-11-20T16:06:44.089Z,71.90
2022-11-20T16:09:12.929Z,71.70
2022-11-20T16:11:40.537Z,71.38
2022-11-20T16:14:35.878Z,72.29
2022-11-20T16:17:04.326Z,72.18
2022-11-20T16:19:31.618Z,72.37
2022-11-20T16:22:03.014Z,72.21
2022-11-20T16:24:31.199Z,72.02
2022-11-20T16:26:59.597Z,72.09
2022-11-20T16:29:26.851Z,72.22
2022-11-20T16:31:53.991Z,72.17
2022-11-20T16:34:21.336Z,72.00
2022-11-20T16:36:49.616Z,71.49
2022-11-20T16:39:22.092Z,71.80
2022-11-20T16:41:51.688Z,71.90
2022-11-20T16:44:18.962Z,71.70
2022-11-20T16:46:46.204Z,71.23
2022-11-20T16:49:14.715Z,71.20
2022-11-20T16:51:42.944Z,71.12
2022-11-20T16:54:11.281Z,70.94
2022-11-20T16:56:40.576Z,70.61
2022-11-20T16:59:07.759Z,70.51
2022-11-20T17:01:38.715Z,70.62
2022-11-20T17:04:07.367Z,70.67
2022-11-20T17:06:39.181Z,70.61
2022-11-20T17:09:11.024Z,70.31
2022-11-20T17:11:41.474Z,70.81
2022-11-20T17:14:08.951Z,70.64
2022-11-20T17:16:37.528Z,70.25
2022-11-20T17:19:09.416Z,70.32
2022-11-20T17:21:37.347Z,70.31
2022-11-20T17:24:07.207Z,70.92
2022-11-20T17:26:35.336Z,70.70
2022-11-20T17:29:05.570Z,70.77
2022-11-20T17:31:34.955Z,70.86
2022-11-20T17:34:03.348Z,70.60
2022-11-20T17:36:32.090Z,70.33
2022-11-20T17:39:00.726Z,70.40
2022-11-20T17:41:29.714Z,70.24
2022-11-20T17:43:59.194Z,70.37
2022-11-20T17:46:33.712Z,70.39
2022-11-20T17:49:02.032Z,70.85
2022-11-20T17:51:31.627Z,70.13
2022-11-20T17:54:04.404Z,70.91
2022-11-20T17:56:53.976Z,70.31
2022-11-20T17:59:21.631Z,70.61
2022-11-20T18:01:48.932Z,70.50
2022-11-20T18:04:17.837Z,70.80
2022-11-20T18:06:45.835Z,70.27
2022-11-20T18:09:13.323Z,71.11
2022-11-20T18:11:42.892Z,70.88
2022-11-20T18:14:50.008Z,71.15
2022-11-20T18:17:18.292Z,70.88
2022-11-20T18:20:13.762Z,70.68
2022-11-20T18:22:35.709Z,70.62
2022-11-20T18:25:06.858Z,70.77
2022-11-20T18:27:34.209Z,71.10
2022-11-20T18:30:01.348Z,71.39
2022-11-20T18:32:30.774Z,71.31
2022-11-20T18:34:58.165Z,71.38
2022-11-20T18:37:25.421Z,71.14
2022-11-20T18:39:52.956Z,71.67
2022-11-20T18:42:38.601Z,71.50
2022-11-20T18:45:06.626Z,71.48
2022-11-20T18:47:40.397Z,71.68
2022-11-20T18:50:09.240Z,71.64
2022-11-20T18:52:44.717Z,72.12
2022-11-20T18:58:06.355Z,72.00
2022-11-20T19:00:34.937Z,72.17
2022-11-20T19:03:05.573Z,72.35
2022-11-20T19:05:36.607Z,72.35
2022-11-20T19:08:03.858Z,72.06
2022-11-20T19:10:31.504Z,72.52
2022-11-20T19:12:59.584Z,72.62
2022-11-20T19:15:28.638Z,73.15
2022-11-20T19:17:57.808Z,72.77
2022-11-20T19:20:26.239Z,72.64
2022-11-20T19:22:55.897Z,72.78
2022-11-20T19:25:23.169Z,72.96
2022-11-20T19:27:50.567Z,73.10
2022-11-20T19:30:18.689Z,73.37
2022-11-20T19:32:47.153Z,73.78
2022-11-20T19:35:14.378Z,73.80
2022-11-20T19:37:42.444Z,73.82
2022-11-20T19:40:10.025Z,73.42
2022-11-20T19:42:37.997Z,73.43
2022-11-20T19:45:05.593Z,73.31
2022-11-20T19:48:01.080Z,73.50
2022-11-20T19:50:21.014Z,73.23
2022-11-20T19:52:48.284Z,72.95
2022-11-20T19:55:15.562Z,73.42
2022-11-20T19:57:44.413Z,74.01
2022-11-20T20:00:15.945Z,73.94
2022-11-20T20:02:47.262Z,73.94
2022-11-20T20:05:14.350Z,73.98
2022-11-20T20:07:42.287Z,74.30
2022-11-20T20:10:10.435Z,74.75
2022-11-20T20:12:39.930Z,74.32
2022-11-20T20:15:07.893Z,74.56
2022-11-20T20:17:35.409Z,75.13
2022-11-20T20:20:02.967Z,75.12
2022-11-20T20:22:31.858Z,75.26
2022-11-20T20:24:59.150Z,74.91
2022-11-20T20:27:27.051Z,74.99
2022-11-20T20:29:54.455Z,75.20
2022-11-20T20:32:21.688Z,74.87
2022-11-20T20:34:49.523Z,75.21
2022-11-20T20:37:16.786Z,75.30
2022-11-20T20:39:43.822Z,75.47
2022-11-20T20:42:11.160Z,76.03
2022-11-20T20:44:56.666Z,75.85
2022-11-20T20:47:23.931Z,75.52
2022-11-20T20:49:51.113Z,75.48
2022-11-20T20:52:18.361Z,75.71
2022-11-20T20:54:46.620Z,75.62
2022-11-20T20:57:13.832Z,75.94
2022-11-20T20:59:41.076Z,76.09
2022-11-20T21:02:10.519Z,76.10
2022-11-20T21:04:37.865Z,76.26
2022-11-20T21:07:05.094Z,76.09
2022-11-20T21:09:32.595Z,76.61
2022-11-20T21:11:59.718Z,76.42
2022-11-20T21:14:26.777Z,76.39
2022-11-20T21:16:54.241Z,76.35
2022-11-20T21:19:21.802Z,76.61
2022-11-20T21:22:01.850Z,76.37
2022-11-20T21:24:34.830Z,77.11
2022-11-20T21:27:05.854Z,76.90
2022-11-20T21:29:33.218Z,77.22
2022-11-20T21:32:00.272Z,76.96
2022-11-20T21:34:27.648Z,77.18
2022-11-20T21:36:54.965Z,76.95
2022-11-20T21:39:23.383Z,77.21
2022-11-20T21:41:50.437Z,77.48
2022-11-20T21:44:30.917Z,77.17
2022-11-20T21:47:00.269Z,77.33
2022-11-20T21:49:28.209Z,77.67
2022-11-20T21:51:55.541Z,77.65
2022-11-20T21:54:22.979Z,77.54
2022-11-20T21:56:50.590Z,77.21
2022-11-20T21:59:17.755Z,77.53
2022-11-20T22:01:45.330Z,77.35
2022-11-20T22:04:14.656Z,77.21
2022-11-20T22:06:41.894Z,77.79
2022-11-20T22:09:10.861Z,77.43
2022-11-20T22:11:38.902Z,77.74
2022-11-20T22:14:21.184Z,77.48
2022-11-20T22:16:50.673Z,77.90
2022-11-20T22:19:20.222Z,77.86
2022-11-20T22:21:47.817Z,78.04
2022-11-20T22:24:17.758Z,78.01
2022-11-20T22:26:45.613Z,78.14
2022-11-20T22:29:21.367Z,78.55
2022-11-20T22:31:51.237Z,78.36
2022-11-20T22:34:18.522Z,78.19
2022-11-20T22:36:45.862Z,77.98
2022-11-20T22:39:13.121Z,78.01
2022-11-20T22:41:40.981Z,77.62
2022-11-20T22:44:08.600Z,77.09
2022-11-20T22:46:37.630Z,77.16
2022-11-20T22:49:07.643Z,77.13
2022-11-20T22:51:37.562Z,77.73
2022-11-20T22:54:05.109Z,77.76
2022-11-20T22:56:33.192Z,77.34
2022-11-20T22:59:00.539Z,77.42
2022-11-20T23:01:34.443Z,78.14
2022-11-20T23:04:05.008Z,77.90
2022-11-20T23:06:35.684Z,77.36
2022-11-20T23:09:04.777Z,77.82
2022-11-20T23:11:32.874Z,77.56
2022-11-20T23:14:06.534Z,77.61
2022-11-20T23:16:35.082Z,77.71
2022-11-20T23:19:06.028Z,77.51
2022-11-20T23:21:34.195Z,77.04
2022-11-20T23:24:01.433Z,77.13
2022-11-20T23:26:32.646Z,76.99
2022-11-20T23:29:01.134Z,76.78
2022-11-20T23:31:30.373Z,76.88
2022-11-20T23:33:58.743Z,76.69
2022-11-20T23:36:26.883Z,77.01
2022-11-20T23:38:54.302Z,77.01
2022-11-20T23:41:21.690Z,76.88
2022-11-20T23:43:49.411Z,76.96
2022-11-20T23:46:17.144Z,76.99
2022-11-20T23:48:45.678Z,76.85
2022-11-20T23:51:14.184Z,77.20
2022-11-20T23:53:41.757Z,76.86
2022-11-20T23:56:09.147Z,76.95
2022-11-20T23:58:38.016Z,77.25
